createdAt,value
2019-04-20T00:00:50.702Z,97.20
2019-04-20T00:03:17.950Z,97.40
2019-04-20T00:05:46.698Z,97.60
2019-04-20T00:08:21.483Z,97.60
2019-04-20T00:10:56.117Z,97.70
2019-04-20T00:13:24.534Z,97.70
2019-04-20T00:15:47.110Z,97.90
2019-04-20T00:18:16.892Z,98.40
2019-04-20T00:20:59.318Z,98.10
2019-04-20T00:23:33.457Z,98.50
2019-04-20T00:26:14.824Z,98.40
2019-04-20T00:28:56.234Z,98.90
2019-04-20T00:31:23.593Z,98.40
2019-04-20T00:33:51.613Z,98.80
2019-04-20T00:36:08.974Z,99.00
2019-04-20T00:38:42.605Z,98.80
2019-04-20T00:41:12.066Z,98.70
2019-04-20T00:43:40.501Z,99.00
2019-04-20T00:46:33.995Z,99.00
2019-04-20T00:49:08.885Z,99.50
2019-04-20T00:51:49.400Z,99.80
2019-04-20T00:54:00.117Z,99.90
2019-04-20T00:56:28.844Z,99.90
2019-04-20T00:59:08.281Z,99.90
2019-04-20T01:01:49.018Z,99.90
2019-04-20T01:04:34.254Z,99.90
2019-04-20T01:06:58.161Z,99.90
2019-04-20T01:09:33.042Z,99.90
2019-04-20T01:12:03.220Z,99.90
2019-04-20T01:14:42.769Z,99.70
2019-04-20T01:17:11.152Z,99.40
2019-04-20T01:19:32.045Z,99.40
2019-04-20T01:22:05.258Z,99.30
2019-04-20T01:24:35.332Z,99.40
2019-04-20T01:27:04.133Z,99.30
2019-04-20T01:29:39.239Z,99.20
2019-04-20T01:32:10.566Z,99.30
2019-04-20T01:34:41.831Z,99.30
2019-04-20T01:37:33.714Z,99.20
2019-04-20T01:39:55.470Z,99.10
2019-04-20T01:42:21.450Z,99.20
2019-04-20T01:44:52.354Z,99.30
2019-04-20T01:47:23.775Z,99.30
2019-04-20T01:49:59.891Z,99.30
2019-04-20T01:52:26.914Z,99.20
2019-04-20T01:55:24.730Z,99.40
2019-04-20T01:57:59.881Z,99.30
2019-04-20T02:00:24.447Z,99.30
2019-04-20T02:02:57.066Z,99.30
2019-04-20T02:05:27.658Z,99.50
2019-04-20T02:07:54.181Z,99.50
2019-04-20T02:10:31.070Z,99.80
2019-04-20T02:12:57.563Z,99.70
2019-04-20T02:15:30.053Z,99.80
2019-04-20T02:18:08.469Z,99.80
2019-04-20T02:20:47.309Z,99.90
2019-04-20T02:23:09.443Z,99.90
2019-04-20T02:25:24.826Z,99.90
2019-04-20T02:28:01.800Z,99.90
2019-04-20T02:31:04.990Z,99.90
2019-04-20T02:36:27.504Z,99.90
2019-04-20T02:41:35.091Z,99.90
2019-04-20T02:46:31.728Z,99.90
2019-04-20T02:49:10.130Z,99.90
2019-04-20T02:51:33.068Z,99.90
2019-04-20T02:54:12.941Z,99.90
2019-04-20T02:59:31.603Z,99.90
2019-04-20T03:01:40.711Z,99.90
2019-04-20T03:03:56.715Z,99.90
2019-04-20T03:06:32.638Z,99.90
2019-04-20T03:09:17.271Z,99.90
2019-04-20T03:11:52.766Z,99.90
2019-04-20T03:14:10.628Z,99.90
2019-04-20T03:16:39.695Z,99.90
2019-04-20T03:19:10.922Z,99.90
2019-04-20T03:21:46.052Z,99.90
2019-04-20T03:24:38.794Z,99.90
2019-04-20T03:26:59.511Z,99.90
2019-04-20T03:29:41.040Z,99.90
2019-04-20T03:32:44.986Z,99.90
2019-04-20T03:35:00.844Z,99.90
2019-04-20T03:37:25.426Z,99.90
2019-04-20T03:39:42.957Z,99.90
2019-04-20T03:41:56.995Z,99.90
2019-04-20T03:44:27.791Z,99.90
2019-04-20T03:46:59.777Z,99.90
2019-04-20T03:49:48.338Z,99.90
2019-04-20T03:52:28.790Z,99.90
2019-04-20T03:54:55.492Z,99.90
2019-04-20T03:57:46.847Z,99.90
2019-04-20T04:00:23.627Z,99.90
2019-04-20T04:05:34.170Z,99.90
2019-04-20T04:07:56.224Z,99.90
2019-04-20T04:10:28.350Z,99.90
2019-04-20T04:13:07.320Z,99.90
2019-04-20T04:15:42.774Z,99.90
2019-04-20T04:18:15.844Z,99.90
2019-04-20T04:20:46.731Z,99.90
2019-04-20T04:23:24.617Z,99.90
2019-04-20T04:25:55.656Z,99.90
2019-04-20T04:28:27.616Z,99.90
2019-04-20T04:30:59.946Z,99.90
2019-04-20T04:35:59.182Z,99.90
2019-04-20T04:38:35.979Z,99.90
2019-04-20T04:41:12.023Z,99.90
2019-04-20T04:43:36.080Z,99.90
2019-04-20T04:45:40.788Z,99.90
2019-04-20T04:48:16.781Z,99.90
2019-04-20T04:50:48.344Z,99.90
2019-04-20T04:53:23.866Z,99.90
2019-04-20T04:55:47.761Z,99.90
2019-04-20T04:58:10.679Z,99.90
2019-04-20T05:00:40.725Z,99.90
2019-04-20T05:03:31.047Z,99.90
2019-04-20T05:06:01.881Z,99.90
2019-04-20T05:08:22.031Z,99.90
2019-04-20T05:10:43.691Z,99.90
2019-04-20T05:13:13.573Z,99.90
2019-04-20T05:15:54.151Z,99.90
2019-04-20T05:18:59.305Z,99.90
2019-04-20T05:21:22.954Z,99.90
2019-04-20T05:23:47.706Z,99.90
2019-04-20T05:26:25.910Z,99.90
2019-04-20T05:28:51.329Z,99.90
2019-04-20T05:31:13.417Z,99.90
2019-04-20T05:34:09.553Z,99.90
2019-04-20T05:36:29.627Z,99.90
2019-04-20T05:39:10.260Z,99.90
2019-04-20T05:41:32.737Z,99.90
2019-04-20T05:44:04.751Z,99.90
2019-04-20T05:46:37.358Z,99.90
2019-04-20T05:49:20.638Z,99.90
2019-04-20T05:51:43.286Z,99.90
2019-04-20T05:54:15.494Z,99.90
2019-04-20T05:56:46.849Z,99.90
2019-04-20T05:59:11.176Z,99.90
2019-04-20T06:01:45.241Z,99.90
2019-04-20T06:04:46.107Z,99.90
2019-04-20T06:07:06.460Z,99.90
2019-04-20T06:09:34.238Z,99.90
2019-04-20T06:14:46.793Z,99.90
2019-04-20T06:17:22.514Z,99.90
2019-04-20T06:19:54.647Z,99.90
2019-04-20T06:22:33.133Z,99.90
2019-04-20T06:25:31.336Z,99.90
2019-04-20T06:27:48.526Z,99.90
2019-04-20T06:30:11.045Z,99.90
2019-04-20T06:33:36.771Z,99.90
2019-04-20T06:36:11.454Z,99.90
2019-04-20T06:38:46.540Z,99.90
2019-04-20T06:41:19.765Z,99.90
2019-04-20T06:43:25.494Z,99.90
2019-04-20T06:45:56.855Z,99.90
2019-04-20T06:48:30.521Z,99.90
2019-04-20T06:50:49.267Z,99.90
2019-04-20T06:53:32.298Z,99.90
2019-04-20T06:56:07.085Z,99.90
2019-04-20T07:01:23.473Z,99.90
2019-04-20T07:04:00.709Z,99.90
2019-04-20T07:06:34.296Z,99.90
2019-04-20T07:11:23.950Z,99.90
2019-04-20T07:13:59.410Z,99.90
2019-04-20T07:16:46.476Z,99.90
2019-04-20T07:19:20.129Z,99.90
2019-04-20T07:22:05.868Z,99.90
2019-04-20T07:24:26.836Z,99.90
2019-04-20T07:26:55.860Z,99.90
2019-04-20T07:29:27.228Z,99.90
2019-04-20T07:31:48.754Z,99.90
2019-04-20T07:34:23.480Z,99.90
2019-04-20T07:37:21.183Z,99.90
2019-04-20T07:39:44.436Z,99.90
2019-04-20T07:42:19.173Z,99.90
2019-04-20T07:44:48.811Z,99.90
2019-04-20T07:47:22.056Z,99.90
2019-04-20T07:49:40.395Z,99.90
2019-04-20T07:51:53.942Z,99.90
2019-04-20T07:54:50.691Z,99.70
2019-04-20T07:57:09.980Z,99.30
2019-04-20T07:59:32.122Z,98.60
2019-04-20T08:02:39.148Z,97.30
2019-04-20T08:04:59.493Z,96.30
2019-04-20T08:07:14.595Z,96.10
2019-04-20T08:09:51.414Z,95.70
2019-04-20T08:12:51.674Z,95.10
2019-04-20T08:15:32.825Z,94.20
2019-04-20T08:17:52.853Z,93.00
2019-04-20T08:20:17.307Z,91.80
2019-04-20T08:22:47.915Z,91.20
2019-04-20T08:25:08.229Z,90.80
2019-04-20T08:27:29.772Z,90.50
2019-04-20T08:30:23.896Z,90.10
2019-04-20T08:32:55.587Z,89.80
2019-04-20T08:35:33.134Z,88.80
2019-04-20T08:38:23.981Z,88.40
2019-04-20T08:40:31.418Z,87.70
2019-04-20T08:43:16.866Z,87.90
2019-04-20T08:45:34.936Z,87.80
2019-04-20T08:48:12.846Z,86.80
2019-04-20T08:50:35.591Z,87.30
2019-04-20T08:55:33.179Z,87.90
2019-04-20T08:57:46.881Z,86.80
2019-04-20T09:00:18.307Z,87.00
2019-04-20T09:02:51.913Z,86.20
2019-04-20T09:05:34.790Z,83.80
2019-04-20T09:08:06.865Z,82.70
2019-04-20T09:10:45.538Z,81.40
2019-04-20T09:13:08.346Z,80.50
2019-04-20T09:15:27.878Z,81.20
2019-04-20T09:18:02.037Z,82.00
2019-04-20T09:20:39.765Z,80.00
2019-04-20T09:23:16.688Z,78.90
2019-04-20T09:28:23.833Z,76.90
2019-04-20T09:31:11.961Z,75.60
2019-04-20T09:33:51.457Z,74.40
2019-04-20T09:36:18.203Z,75.90
2019-04-20T09:39:04.865Z,76.00
2019-04-20T09:41:56.481Z,73.80
2019-04-20T09:44:04.843Z,74.50
2019-04-20T09:46:40.354Z,72.90
2019-04-20T09:49:15.707Z,72.50
2019-04-20T09:51:54.122Z,72.90
2019-04-20T09:54:26.798Z,72.60
2019-04-20T09:56:55.264Z,72.10
2019-04-20T09:59:22.060Z,71.90
2019-04-20T10:01:41.901Z,71.60
2019-04-20T10:04:05.498Z,71.20
2019-04-20T10:06:35.979Z,70.10
2019-04-20T10:09:07.393Z,69.30
2019-04-20T10:11:37.298Z,68.50
2019-04-20T10:14:06.245Z,68.40
2019-04-20T10:16:35.676Z,67.30
2019-04-20T10:19:04.923Z,67.00
2019-04-20T10:21:33.945Z,64.60
2019-04-20T10:24:02.845Z,64.60
2019-04-20T10:26:32.395Z,65.20
2019-04-20T10:29:01.549Z,63.20
2019-04-20T10:31:30.752Z,65.30
2019-04-20T10:33:59.765Z,62.90
2019-04-20T10:36:49.411Z,62.40
2019-04-20T10:39:20.406Z,61.60
2019-04-20T10:41:54.299Z,63.00
2019-04-20T10:44:19.248Z,61.70
2019-04-20T10:46:49.060Z,61.90
2019-04-20T10:49:17.719Z,62.40
2019-04-20T10:51:47.467Z,62.40
2019-04-20T10:54:16.391Z,61.60
2019-04-20T10:56:45.748Z,59.00
2019-04-20T10:59:14.259Z,58.30
2019-04-20T11:01:43.425Z,55.90
2019-04-20T11:04:12.922Z,56.90
2019-04-20T11:06:42.753Z,57.50
2019-04-20T11:09:11.432Z,56.20
2019-04-20T11:11:40.699Z,55.20
2019-04-20T11:14:16.306Z,51.30
2019-04-20T11:16:40.259Z,52.00
2019-04-20T11:19:09.439Z,51.60
2019-04-20T11:21:38.587Z,49.90
2019-04-20T11:24:08.121Z,48.60
2019-04-20T11:26:38.855Z,48.70
2019-04-20T11:29:08.281Z,49.60
2019-04-20T11:31:43.129Z,50.60
2019-04-20T11:34:08.046Z,50.00
2019-04-20T11:36:37.100Z,49.00
2019-04-20T11:39:09.316Z,49.10
2019-04-20T11:41:38.878Z,49.30
2019-04-20T11:44:07.680Z,50.10
2019-04-20T11:46:36.626Z,50.60
2019-04-20T11:49:05.681Z,50.40
2019-04-20T11:51:34.359Z,50.20
2019-04-20T11:54:04.121Z,50.50
2019-04-20T11:56:37.944Z,50.50
2019-04-20T11:59:03.319Z,50.20
2019-04-20T12:01:56.548Z,50.30
2019-04-20T12:04:34.059Z,50.80
2019-04-20T12:07:15.075Z,49.70
2019-04-20T12:09:44.031Z,50.10
2019-04-20T12:12:26.772Z,49.90
2019-04-20T12:14:42.987Z,49.70
2019-04-20T12:17:11.631Z,49.30
2019-04-20T12:19:40.148Z,49.10
2019-04-20T12:22:09.694Z,49.10
2019-04-20T12:24:38.244Z,49.30
2019-04-20T12:27:07.011Z,48.30
2019-04-20T12:29:36.634Z,48.60
2019-04-20T12:32:07.158Z,48.40
2019-04-20T12:34:35.509Z,48.20
2019-04-20T12:37:05.002Z,48.20
2019-04-20T12:39:33.731Z,48.20
2019-04-20T12:42:05.968Z,47.70
2019-04-20T12:44:32.360Z,47.50
2019-04-20T12:47:01.590Z,46.70
2019-04-20T12:49:31.616Z,46.70
2019-04-20T12:52:03.558Z,46.80
2019-04-20T12:54:30.440Z,46.70
2019-04-20T12:57:00.434Z,45.90
2019-04-20T12:59:29.659Z,45.60
2019-04-20T13:01:59.255Z,45.20
2019-04-20T13:04:28.056Z,44.90
2019-04-20T13:06:58.112Z,44.10
2019-04-20T13:09:30.623Z,43.80
2019-04-20T13:12:12.147Z,44.10
2019-04-20T13:17:44.382Z,42.50
2019-04-20T13:20:18.711Z,41.90
2019-04-20T13:22:47.161Z,40.90
2019-04-20T13:25:16.868Z,41.20
2019-04-20T13:27:45.590Z,40.60
2019-04-20T13:30:14.373Z,40.00
2019-04-20T13:32:43.612Z,40.00
2019-04-20T13:35:12.551Z,39.70
2019-04-20T13:37:42.293Z,38.80
2019-04-20T13:40:11.669Z,38.90
2019-04-20T13:42:41.402Z,38.30
2019-04-20T13:45:10.858Z,37.60
2019-04-20T13:47:39.409Z,37.50
2019-04-20T13:50:09.718Z,37.00
2019-04-20T13:52:38.610Z,36.50
2019-04-20T13:55:07.426Z,35.60
2019-04-20T13:57:48.550Z,35.60
2019-04-20T14:00:22.664Z,36.30
2019-04-20T14:02:54.123Z,35.60
2019-04-20T14:05:34.921Z,35.40
2019-04-20T14:08:07.341Z,35.00
2019-04-20T14:10:37.644Z,35.00
2019-04-20T14:13:12.137Z,34.60
2019-04-20T14:15:37.371Z,34.40
2019-04-20T14:18:07.031Z,34.80
2019-04-20T14:20:36.236Z,35.60
2019-04-20T14:23:05.312Z,36.20
2019-04-20T14:25:33.943Z,37.00
2019-04-20T14:28:02.815Z,37.50
2019-04-20T14:30:31.509Z,38.10
2019-04-20T14:33:01.017Z,38.00
2019-04-20T14:35:29.676Z,38.40
2019-04-20T14:37:59.611Z,38.50
2019-04-20T14:40:28.383Z,38.50
2019-04-20T14:42:58.303Z,39.20
2019-04-20T14:45:27.047Z,39.70
2019-04-20T14:47:55.588Z,40.00
2019-04-20T14:50:25.471Z,40.10
2019-04-20T14:52:54.017Z,40.20
2019-04-20T14:55:25.801Z,40.50
2019-04-20T14:57:57.313Z,41.30
2019-04-20T15:00:43.746Z,41.40
2019-04-20T15:03:30.410Z,41.90
2019-04-20T15:06:03.060Z,41.50
2019-04-20T15:08:32.399Z,41.60
2019-04-20T15:11:01.126Z,41.80
2019-04-20T15:13:30.810Z,42.30
2019-04-20T15:15:59.539Z,42.60
2019-04-20T15:18:29.819Z,42.40
2019-04-20T15:21:01.535Z,42.60
2019-04-20T15:23:30.114Z,42.80
2019-04-20T15:26:00.016Z,42.40
2019-04-20T15:28:28.804Z,42.60
2019-04-20T15:31:16.599Z,42.80
2019-04-20T15:33:45.340Z,43.00
2019-04-20T15:36:13.907Z,42.80
2019-04-20T15:38:43.014Z,42.80
2019-04-20T15:41:13.334Z,43.00
2019-04-20T15:43:41.731Z,42.80
2019-04-20T15:46:10.181Z,43.10
2019-04-20T15:48:39.839Z,43.00
2019-04-20T15:51:09.833Z,43.20
2019-04-20T15:53:39.734Z,42.30
2019-04-20T15:56:10.354Z,42.50
2019-04-20T15:58:38.731Z,42.80
2019-04-20T16:01:08.316Z,42.40
2019-04-20T16:03:45.569Z,42.40
2019-04-20T16:06:14.246Z,43.40
2019-04-20T16:08:44.384Z,43.20
2019-04-20T16:11:13.302Z,43.10
2019-04-20T16:13:47.580Z,43.00
2019-04-20T16:16:13.998Z,41.90
2019-04-20T16:18:43.331Z,42.70
2019-04-20T16:21:33.908Z,42.70
2019-04-20T16:24:06.697Z,42.00
2019-04-20T16:26:37.872Z,42.00
2019-04-20T16:29:08.075Z,42.10
2019-04-20T16:31:48.400Z,42.20
2019-04-20T16:34:16.009Z,41.90
2019-04-20T16:36:44.711Z,41.80
2019-04-20T16:39:14.294Z,42.20
2019-04-20T16:41:44.460Z,41.80
2019-04-20T16:44:13.459Z,41.70
2019-04-20T16:46:42.493Z,41.60
2019-04-20T16:49:11.113Z,41.60
2019-04-20T16:51:40.777Z,41.50
2019-04-20T16:54:10.122Z,42.10
2019-04-20T16:56:39.031Z,41.90
2019-04-20T16:59:11.611Z,41.90
2019-04-20T17:01:40.222Z,41.90
2019-04-20T17:04:13.600Z,41.70
2019-04-20T17:06:42.271Z,41.70
2019-04-20T17:09:13.795Z,41.50
2019-04-20T17:11:43.687Z,41.50
2019-04-20T17:14:12.731Z,41.50
2019-04-20T17:16:41.919Z,41.70
2019-04-20T17:19:10.451Z,41.50
2019-04-20T17:21:40.146Z,42.00
2019-04-20T17:24:29.374Z,41.90
2019-04-20T17:27:08.936Z,41.80
2019-04-20T17:29:46.165Z,42.10
2019-04-20T17:32:17.139Z,42.30
2019-04-20T17:35:00.068Z,42.40
2019-04-20T17:37:15.881Z,42.80
2019-04-20T17:40:06.416Z,42.80
2019-04-20T17:42:30.182Z,42.70
2019-04-20T17:44:56.687Z,42.60
2019-04-20T17:47:39.149Z,42.80
2019-04-20T17:50:04.305Z,42.90
2019-04-20T17:52:35.189Z,43.90
2019-04-20T17:54:55.848Z,43.00
2019-04-20T17:57:25.485Z,43.20
2019-04-20T18:00:01.431Z,43.40
2019-04-20T18:02:49.436Z,43.50
2019-04-20T18:05:37.012Z,44.10
2019-04-20T18:08:16.512Z,43.80
2019-04-20T18:10:38.128Z,43.90
2019-04-20T18:12:55.388Z,44.00
2019-04-20T18:15:40.379Z,44.40
2019-04-20T18:20:45.022Z,44.60
2019-04-20T18:23:13.740Z,44.60
2019-04-20T18:26:04.806Z,44.70
2019-04-20T18:28:24.803Z,45.20
2019-04-20T18:30:52.549Z,44.80
2019-04-20T18:33:18.842Z,45.10
2019-04-20T18:35:47.896Z,45.10
2019-04-20T18:38:18.490Z,45.30
2019-04-20T18:40:56.004Z,45.60
2019-04-20T18:43:22.030Z,45.90
2019-04-20T18:46:08.071Z,45.80
2019-04-20T18:48:41.771Z,45.90
2019-04-20T18:50:49.038Z,46.20
2019-04-20T18:53:28.353Z,46.40
2019-04-20T18:55:55.128Z,46.60
2019-04-20T18:58:19.181Z,46.70
2019-04-20T19:00:51.693Z,47.20
2019-04-20T19:03:25.775Z,47.30
2019-04-20T19:05:49.631Z,47.20
2019-04-20T19:08:19.296Z,47.50
2019-04-20T19:10:57.582Z,47.90
2019-04-20T19:13:26.734Z,48.10
2019-04-20T19:16:08.845Z,48.30
2019-04-20T19:18:49.096Z,48.60
2019-04-20T19:21:04.787Z,48.90
2019-04-20T19:23:35.390Z,49.10
2019-04-20T19:26:09.546Z,49.50
2019-04-20T19:28:44.230Z,49.60
2019-04-20T19:31:21.353Z,49.90
2019-04-20T19:33:57.580Z,50.20
2019-04-20T19:36:19.766Z,50.40
2019-04-20T19:38:49.897Z,50.70
2019-04-20T19:41:30.251Z,51.00
2019-04-20T19:43:56.310Z,51.20
2019-04-20T19:46:47.814Z,51.80
2019-04-20T19:48:56.725Z,52.10
2019-04-20T19:51:41.150Z,52.30
2019-04-20T19:54:06.634Z,52.80
2019-04-20T19:56:48.263Z,53.00
2019-04-20T19:59:16.031Z,53.40
2019-04-20T20:01:55.879Z,53.90
2019-04-20T20:04:25.767Z,54.10
2019-04-20T20:07:01.866Z,54.50
2019-04-20T20:09:25.830Z,55.00
2019-04-20T20:11:56.060Z,55.30
2019-04-20T20:14:32.301Z,55.40
2019-04-20T20:17:08.887Z,55.60
2019-04-20T20:19:38.129Z,55.90
2019-04-20T20:22:07.965Z,56.30
2019-04-20T20:24:25.413Z,56.60
2019-04-20T20:27:00.464Z,57.30
2019-04-20T20:29:34.252Z,57.40
2019-04-20T20:32:13.262Z,57.80
2019-04-20T20:34:32.378Z,58.50
2019-04-20T20:37:01.813Z,59.10
2019-04-20T20:39:31.073Z,59.50
2019-04-20T20:42:10.901Z,59.90
2019-04-20T20:44:38.944Z,60.60
2019-04-20T20:47:12.955Z,61.10
2019-04-20T20:50:17.396Z,61.50
2019-04-20T20:52:32.398Z,61.80
2019-04-20T20:54:56.444Z,62.80
2019-04-20T20:57:45.096Z,63.20
2019-04-20T21:00:26.849Z,63.30
2019-04-20T21:02:48.624Z,64.30
2019-04-20T21:05:09.296Z,64.50
2019-04-20T21:07:38.635Z,64.90
2019-04-20T21:10:08.366Z,65.70
2019-04-20T21:12:43.561Z,65.90
2019-04-20T21:15:13.422Z,66.10
2019-04-20T21:18:10.696Z,67.00
2019-04-20T21:20:27.610Z,66.90
2019-04-20T21:23:04.261Z,67.70
2019-04-20T21:25:36.110Z,68.70
2019-04-20T21:28:00.626Z,69.00
2019-04-20T21:30:35.005Z,69.30
2019-04-20T21:33:03.416Z,69.90
2019-04-20T21:35:36.971Z,70.60
2019-04-20T21:38:14.904Z,71.20
2019-04-20T21:40:59.684Z,71.60
2019-04-20T21:43:38.775Z,72.50
2019-04-20T21:46:07.203Z,73.20
2019-04-20T21:48:51.723Z,74.30
2019-04-20T21:51:23.313Z,75.10
2019-04-20T21:53:35.863Z,75.90
2019-04-20T21:56:06.022Z,76.60
2019-04-20T21:58:41.672Z,76.60
2019-04-20T22:01:16.353Z,77.50
2019-04-20T22:03:36.346Z,78.50
2019-04-20T22:06:26.528Z,78.90
2019-04-20T22:09:00.431Z,79.10
2019-04-20T22:11:25.964Z,79.50
2019-04-20T22:13:55.427Z,80.50
2019-04-20T22:16:38.925Z,80.40
2019-04-20T22:19:17.216Z,81.50
2019-04-20T22:22:04.032Z,81.50
2019-04-20T22:24:39.960Z,80.90
2019-04-20T22:27:04.607Z,82.20
2019-04-20T22:29:23.883Z,81.70
2019-04-20T22:32:00.496Z,83.00
2019-04-20T22:34:26.217Z,83.00
2019-04-20T22:36:53.825Z,83.40
2019-04-20T22:39:31.935Z,84.60
2019-04-20T22:42:00.256Z,85.70
2019-04-20T22:44:30.362Z,87.10
2019-04-20T22:47:00.491Z,87.90
2019-04-20T22:49:45.786Z,87.70
2019-04-20T22:52:13.177Z,88.70
2019-04-20T22:54:44.629Z,90.10
2019-04-20T22:57:11.885Z,90.60
2019-04-20T22:59:40.885Z,91.50
2019-04-20T23:02:02.354Z,91.60
2019-04-20T23:04:30.903Z,91.80
2019-04-20T23:07:03.134Z,91.50
2019-04-20T23:09:34.206Z,91.50
2019-04-20T23:12:08.058Z,92.00
2019-04-20T23:14:32.163Z,92.10
2019-04-20T23:17:02.007Z,92.10
2019-04-20T23:19:54.764Z,92.80
2019-04-20T23:22:21.085Z,92.10
2019-04-20T23:25:09.199Z,92.50
2019-04-20T23:27:39.087Z,91.50
2019-04-20T23:30:12.606Z,91.80
2019-04-20T23:32:39.938Z,91.50
2019-04-20T23:35:13.432Z,91.90
2019-04-20T23:37:40.595Z,92.20
2019-04-20T23:40:30.356Z,91.90
2019-04-20T23:43:03.118Z,91.40
2019-04-20T23:45:38.757Z,91.20
2019-04-20T23:48:22.732Z,91.30
2019-04-20T23:51:08.245Z,91.80
2019-04-20T23:53:37.605Z,92.50
2019-04-20T23:55:52.034Z,92.80
2019-04-20T23:58:21.175Z,92.60
